createdAt,value
2018-08-27T00:00:44.095Z,76.49
2018-08-27T00:03:13.007Z,76.86
2018-08-27T00:05:41.961Z,76.83
2018-08-27T00:08:11.288Z,76.99
2018-08-27T00:10:40.227Z,77.17
2018-08-27T00:13:09.134Z,76.57
2018-08-27T00:15:38.065Z,77.03
2018-08-27T00:18:06.975Z,76.91
2018-08-27T00:20:35.899Z,77.43
2018-08-27T00:23:04.946Z,77.90
2018-08-27T00:25:33.863Z,77.28
2018-08-27T00:28:02.817Z,77.11
2018-08-27T00:30:31.821Z,77.70
2018-08-27T00:33:00.770Z,77.55
2018-08-27T00:35:29.708Z,77.23
2018-08-27T00:37:58.636Z,77.09
2018-08-27T00:40:27.557Z,76.54
2018-08-27T00:42:56.464Z,77.14
2018-08-27T00:45:25.516Z,77.42
2018-08-27T00:47:54.524Z,77.26
2018-08-27T00:50:23.561Z,76.35
2018-08-27T00:52:52.459Z,76.75
2018-08-27T00:55:21.386Z,76.28
2018-08-27T00:57:50.305Z,76.17
2018-08-27T01:00:19.311Z,76.03
2018-08-27T01:02:48.313Z,75.96
2018-08-27T01:05:17.348Z,76.68
2018-08-27T01:07:46.284Z,76.50
2018-08-27T01:10:15.216Z,76.72
2018-08-27T01:12:44.199Z,76.80
2018-08-27T01:15:13.228Z,76.96
2018-08-27T01:17:42.202Z,77.29
2018-08-27T01:20:11.516Z,77.68
2018-08-27T01:22:40.475Z,77.54
2018-08-27T01:25:09.326Z,77.82
2018-08-27T01:27:38.268Z,78.25
2018-08-27T01:30:07.193Z,77.35
2018-08-27T01:32:36.215Z,78.10
2018-08-27T01:35:05.138Z,78.16
2018-08-27T01:37:34.049Z,77.88
2018-08-27T01:40:03.032Z,78.10
2018-08-27T01:42:34.654Z,78.25
2018-08-27T01:45:09.629Z,78.28
2018-08-27T01:47:41.629Z,78.90
2018-08-27T01:50:17.693Z,78.58
2018-08-27T01:52:49.833Z,78.47
2018-08-27T01:55:25.912Z,78.56
2018-08-27T01:57:58.739Z,78.30
2018-08-27T02:00:29.206Z,78.52
2018-08-27T02:02:59.983Z,78.45
2018-08-27T02:05:35.703Z,79.15
2018-08-27T02:08:08.528Z,79.13
2018-08-27T02:10:37.682Z,78.75
2018-08-27T02:13:08.504Z,78.75
2018-08-27T02:15:47.727Z,78.57
2018-08-27T02:18:31.991Z,78.41
2018-08-27T02:21:04.198Z,78.82
2018-08-27T02:23:40.560Z,78.51
2018-08-27T02:26:17.987Z,78.76
2018-08-27T02:28:54.449Z,78.70
2018-08-27T02:31:29.248Z,78.47
2018-08-27T02:34:02.354Z,79.02
2018-08-27T02:36:39.823Z,79.30
2018-08-27T02:39:14.640Z,79.50
2018-08-27T02:41:46.532Z,78.88
2018-08-27T02:44:25.936Z,78.42
2018-08-27T02:47:01.829Z,78.22
2018-08-27T02:49:36.438Z,78.12
2018-08-27T02:52:14.969Z,79.06
2018-08-27T02:54:47.048Z,78.40
2018-08-27T02:57:21.409Z,78.72
2018-08-27T02:59:54.818Z,78.31
2018-08-27T03:02:28.351Z,78.73
2018-08-27T03:05:02.524Z,77.90
2018-08-27T03:07:37.103Z,77.17
2018-08-27T03:10:10.792Z,76.79
2018-08-27T03:12:41.626Z,77.13
2018-08-27T03:15:13.400Z,77.08
2018-08-27T03:17:47.334Z,77.07
2018-08-27T03:20:17.568Z,77.71
2018-08-27T03:22:53.321Z,77.50
2018-08-27T03:25:28.318Z,77.48
2018-08-27T03:27:57.268Z,77.70
2018-08-27T03:30:26.244Z,77.82
2018-08-27T03:32:55.183Z,77.95
2018-08-27T03:35:24.149Z,77.87
2018-08-27T03:37:53.068Z,77.55
2018-08-27T03:40:22.024Z,77.69
2018-08-27T03:42:50.970Z,77.78
2018-08-27T03:45:19.913Z,77.42
2018-08-27T03:47:48.955Z,78.01
2018-08-27T03:50:18.113Z,77.73
2018-08-27T03:52:47.012Z,77.86
2018-08-27T03:55:15.923Z,77.64
2018-08-27T03:57:44.865Z,77.83
2018-08-27T04:00:13.976Z,77.99
2018-08-27T04:02:42.902Z,78.27
2018-08-27T04:05:11.835Z,77.48
2018-08-27T04:07:40.723Z,77.94
2018-08-27T04:10:09.633Z,77.22
2018-08-27T04:12:38.576Z,77.50
2018-08-27T04:15:07.585Z,77.44
2018-08-27T04:17:36.517Z,77.13
2018-08-27T04:20:05.806Z,77.66
2018-08-27T04:22:34.720Z,76.92
2018-08-27T04:25:03.634Z,77.36
2018-08-27T04:27:32.655Z,77.29
2018-08-27T04:30:01.604Z,76.94
2018-08-27T04:32:30.553Z,77.02
2018-08-27T04:34:59.554Z,77.44
2018-08-27T04:37:28.466Z,76.82
2018-08-27T04:39:57.414Z,77.13
2018-08-27T04:42:26.337Z,78.22
2018-08-27T04:44:55.260Z,77.44
2018-08-27T04:47:24.183Z,77.40
2018-08-27T04:49:53.118Z,77.71
2018-08-27T04:52:22.043Z,77.32
2018-08-27T04:54:52.040Z,77.00
2018-08-27T04:57:20.973Z,77.16
2018-08-27T04:59:53.420Z,76.92
2018-08-27T05:02:22.344Z,76.09
2018-08-27T05:04:51.275Z,75.38
2018-08-27T05:07:20.250Z,76.31
2018-08-27T05:09:49.258Z,74.22
2018-08-27T05:12:18.272Z,74.61
2018-08-27T05:14:47.193Z,73.89
2018-08-27T05:17:16.289Z,73.26
2018-08-27T05:19:45.194Z,73.10
2018-08-27T05:22:14.114Z,72.00
2018-08-27T05:24:43.135Z,72.86
2018-08-27T05:27:12.045Z,71.44
2018-08-27T05:29:40.968Z,70.49
2018-08-27T05:32:09.893Z,69.65
2018-08-27T05:34:38.835Z,69.62
2018-08-27T05:37:07.757Z,69.43
2018-08-27T05:39:36.681Z,68.71
2018-08-27T05:42:05.599Z,67.62
2018-08-27T05:44:34.546Z,66.39
2018-08-27T05:47:03.431Z,65.17
2018-08-27T05:49:32.341Z,63.34
2018-08-27T05:52:01.509Z,61.25
2018-08-27T05:54:30.385Z,59.62
2018-08-27T05:56:59.311Z,58.38
2018-08-27T05:59:28.291Z,58.25
2018-08-27T06:01:57.259Z,58.07
2018-08-27T06:04:26.192Z,56.87
2018-08-27T06:06:55.222Z,57.14
2018-08-27T06:09:24.140Z,57.31
2018-08-27T06:11:53.127Z,55.85
2018-08-27T06:14:22.068Z,55.65
2018-08-27T06:16:50.987Z,53.68
2018-08-27T06:19:19.920Z,51.76
2018-08-27T06:21:48.887Z,49.72
2018-08-27T06:24:17.868Z,47.46
2018-08-27T06:26:46.831Z,46.16
2018-08-27T06:29:15.964Z,47.38
2018-08-27T06:31:44.866Z,47.19
2018-08-27T06:34:13.782Z,47.99
2018-08-27T06:36:42.690Z,48.53
2018-08-27T06:39:11.838Z,48.80
2018-08-27T06:41:40.836Z,47.35
2018-08-27T06:44:09.746Z,47.25
2018-08-27T06:46:38.668Z,43.11
2018-08-27T06:49:07.601Z,42.06
2018-08-27T06:51:36.595Z,39.23
2018-08-27T06:54:05.496Z,39.96
2018-08-27T06:56:34.481Z,41.90
2018-08-27T06:59:03.396Z,41.28
2018-08-27T07:01:32.359Z,41.44
2018-08-27T07:04:01.459Z,44.29
2018-08-27T07:06:30.549Z,43.13
2018-08-27T07:08:59.471Z,44.35
2018-08-27T07:11:28.400Z,42.43
2018-08-27T07:13:57.337Z,41.58
2018-08-27T07:16:26.232Z,39.99
2018-08-27T07:18:55.140Z,39.31
2018-08-27T07:21:24.114Z,39.06
2018-08-27T07:23:53.020Z,38.65
2018-08-27T07:26:21.981Z,39.24
2018-08-27T07:28:50.890Z,40.38
2018-08-27T07:31:19.819Z,41.37
2018-08-27T07:33:48.778Z,42.10
2018-08-27T07:36:17.994Z,43.26
2018-08-27T07:38:46.794Z,44.19
2018-08-27T07:41:15.733Z,44.39
2018-08-27T07:43:44.678Z,44.85
2018-08-27T07:46:13.710Z,45.01
2018-08-27T07:48:42.613Z,42.49
2018-08-27T07:51:11.758Z,40.59
2018-08-27T07:53:40.843Z,38.25
2018-08-27T07:56:09.754Z,39.12
2018-08-27T07:58:38.712Z,39.14
2018-08-27T08:01:07.557Z,38.88
2018-08-27T08:03:36.477Z,38.77
2018-08-27T08:06:05.417Z,36.68
2018-08-27T08:08:34.315Z,34.29
2018-08-27T08:11:03.303Z,34.54
2018-08-27T08:13:32.207Z,31.51
2018-08-27T08:16:01.114Z,30.71
2018-08-27T08:18:30.056Z,30.37
2018-08-27T08:20:59.025Z,32.17
2018-08-27T08:23:27.939Z,32.16
2018-08-27T08:25:56.891Z,31.33
2018-08-27T08:28:25.835Z,30.03
2018-08-27T08:30:54.873Z,27.73
2018-08-27T08:33:23.795Z,28.27
2018-08-27T08:35:52.707Z,28.21
2018-08-27T08:38:21.589Z,28.99
2018-08-27T08:40:50.512Z,29.99
2018-08-27T08:43:19.435Z,30.05
2018-08-27T08:45:48.338Z,29.91
2018-08-27T08:48:17.309Z,29.45
2018-08-27T08:50:46.222Z,28.81
2018-08-27T08:53:15.144Z,29.16
2018-08-27T08:55:44.081Z,28.57
2018-08-27T08:58:12.972Z,28.11
2018-08-27T09:00:41.917Z,28.85
2018-08-27T09:03:10.844Z,28.79
2018-08-27T09:05:39.760Z,28.98
2018-08-27T09:08:08.706Z,28.01
2018-08-27T09:10:37.933Z,29.15
2018-08-27T09:13:06.842Z,27.28
2018-08-27T09:15:35.793Z,26.30
2018-08-27T09:18:04.748Z,26.61
2018-08-27T09:20:33.733Z,26.97
2018-08-27T09:23:02.660Z,28.24
2018-08-27T09:25:31.633Z,26.04
2018-08-27T09:28:00.542Z,26.36
2018-08-27T09:30:29.471Z,26.55
2018-08-27T09:32:58.449Z,27.93
2018-08-27T09:35:27.371Z,27.08
2018-08-27T09:37:56.346Z,27.13
2018-08-27T09:40:25.262Z,26.66
2018-08-27T09:42:54.258Z,27.84
2018-08-27T09:45:23.399Z,28.73
2018-08-27T09:47:52.249Z,28.84
2018-08-27T09:50:21.153Z,28.18
2018-08-27T09:52:50.174Z,28.80
2018-08-27T09:55:19.032Z,28.85
2018-08-27T09:57:47.985Z,28.50
2018-08-27T10:00:25.009Z,28.18
2018-08-27T10:02:53.937Z,27.99
2018-08-27T10:05:22.883Z,27.76
2018-08-27T10:07:51.813Z,28.54
2018-08-27T10:10:20.774Z,28.29
2018-08-27T10:12:49.680Z,28.32
2018-08-27T10:15:18.602Z,29.05
2018-08-27T10:17:47.725Z,29.77
2018-08-27T10:20:17.632Z,28.49
2018-08-27T10:22:46.576Z,28.71
2018-08-27T10:25:15.442Z,28.13
2018-08-27T10:27:44.336Z,27.85
2018-08-27T10:30:13.514Z,28.25
2018-08-27T10:32:42.457Z,28.07
2018-08-27T10:35:11.368Z,29.36
2018-08-27T10:37:40.403Z,29.17
2018-08-27T10:40:09.328Z,28.93
2018-08-27T10:42:38.315Z,29.82
2018-08-27T10:45:07.170Z,29.91
2018-08-27T10:47:36.099Z,30.38
2018-08-27T10:50:05.038Z,31.06
2018-08-27T10:52:33.938Z,31.15
2018-08-27T10:55:02.840Z,31.94
2018-08-27T10:57:31.769Z,31.73
2018-08-27T11:00:00.741Z,32.18
2018-08-27T11:02:29.647Z,32.09
2018-08-27T11:04:58.576Z,31.58
2018-08-27T11:07:27.568Z,32.15
2018-08-27T11:09:56.878Z,33.08
2018-08-27T11:12:25.795Z,33.70
2018-08-27T11:14:54.873Z,33.04
2018-08-27T11:17:23.834Z,32.45
2018-08-27T11:19:52.879Z,32.67
2018-08-27T11:22:21.692Z,31.99
2018-08-27T11:24:50.701Z,33.20
2018-08-27T11:27:19.648Z,32.29
2018-08-27T11:29:48.584Z,33.17
2018-08-27T11:32:17.532Z,32.95
2018-08-27T11:34:46.440Z,32.36
2018-08-27T11:37:15.377Z,32.52
2018-08-27T11:39:44.298Z,32.31
2018-08-27T11:42:13.207Z,32.43
2018-08-27T11:44:42.200Z,31.58
2018-08-27T11:47:11.164Z,31.28
2018-08-27T11:49:40.107Z,31.32
2018-08-27T11:52:09.021Z,31.31
2018-08-27T11:54:37.932Z,32.26
2018-08-27T11:57:06.975Z,32.37
2018-08-27T11:59:35.928Z,32.83
2018-08-27T12:02:05.144Z,31.82
2018-08-27T12:04:33.993Z,32.11
2018-08-27T12:07:02.888Z,31.48
2018-08-27T12:09:31.809Z,31.90
2018-08-27T12:12:00.816Z,32.01
2018-08-27T12:14:29.722Z,31.98
2018-08-27T12:16:58.660Z,33.52
2018-08-27T12:19:27.564Z,31.41
2018-08-27T12:21:56.464Z,31.02
2018-08-27T12:24:25.377Z,31.32
2018-08-27T12:26:54.278Z,31.89
2018-08-27T12:29:23.193Z,32.02
2018-08-27T12:31:52.090Z,32.83
2018-08-27T12:34:21.282Z,33.34
2018-08-27T12:36:50.203Z,32.97
2018-08-27T12:39:19.211Z,33.10
2018-08-27T12:41:48.123Z,32.43
2018-08-27T12:44:17.061Z,33.07
2018-08-27T12:46:45.975Z,32.80
2018-08-27T12:49:14.900Z,33.20
2018-08-27T12:51:43.817Z,32.54
2018-08-27T12:54:12.707Z,32.49
2018-08-27T12:56:41.629Z,31.54
2018-08-27T12:59:10.616Z,31.62
2018-08-27T13:01:39.530Z,31.85
2018-08-27T13:04:08.444Z,31.07
2018-08-27T13:06:37.349Z,31.57
2018-08-27T13:09:08.204Z,30.67
2018-08-27T13:11:37.237Z,29.19
2018-08-27T13:14:06.380Z,29.44
2018-08-27T13:16:35.370Z,28.78
2018-08-27T13:19:04.541Z,29.22
2018-08-27T13:21:33.379Z,29.06
2018-08-27T13:24:02.276Z,29.22
2018-08-27T13:26:31.176Z,29.14
2018-08-27T13:29:00.094Z,28.79
2018-08-27T13:31:29.277Z,28.37
2018-08-27T13:33:58.184Z,27.86
2018-08-27T13:36:27.144Z,28.23
2018-08-27T13:38:56.163Z,28.10
2018-08-27T13:41:25.154Z,28.22
2018-08-27T13:43:54.048Z,28.67
2018-08-27T13:46:23.254Z,29.67
2018-08-27T13:48:52.237Z,29.45
2018-08-27T13:51:26.120Z,29.93
2018-08-27T13:53:55.044Z,30.13
2018-08-27T13:56:24.078Z,30.17
2018-08-27T13:58:52.996Z,30.06
2018-08-27T14:01:21.923Z,29.72
2018-08-27T14:03:50.915Z,29.89
2018-08-27T14:06:19.850Z,29.76
2018-08-27T14:08:48.768Z,29.67
2018-08-27T14:11:17.715Z,29.86
2018-08-27T14:13:46.614Z,29.61
2018-08-27T14:16:15.536Z,29.57
2018-08-27T14:18:44.529Z,29.45
2018-08-27T14:21:13.547Z,29.46
2018-08-27T14:23:42.748Z,29.55
2018-08-27T14:26:11.887Z,29.81
2018-08-27T14:28:41.980Z,29.70
2018-08-27T14:31:10.888Z,30.30
2018-08-27T14:33:39.802Z,29.52
2018-08-27T14:36:08.718Z,29.41
2018-08-27T14:38:37.653Z,29.17
2018-08-27T14:41:06.646Z,29.11
2018-08-27T14:43:35.508Z,29.41
2018-08-27T14:46:04.505Z,29.56
2018-08-27T14:48:33.432Z,29.87
2018-08-27T14:51:02.420Z,29.69
2018-08-27T14:53:31.336Z,29.79
2018-08-27T14:56:00.290Z,29.35
2018-08-27T14:58:29.181Z,29.63
2018-08-27T15:01:03.409Z,29.23
2018-08-27T15:03:32.476Z,29.20
2018-08-27T15:06:01.408Z,29.52
2018-08-27T15:08:30.334Z,29.65
2018-08-27T15:10:59.717Z,29.91
2018-08-27T15:13:29.461Z,30.22
2018-08-27T15:15:58.475Z,29.94
2018-08-27T15:18:27.391Z,30.45
2018-08-27T15:20:56.313Z,30.34
2018-08-27T15:23:25.313Z,31.22
2018-08-27T15:25:54.171Z,30.87
2018-08-27T15:28:23.098Z,31.64
2018-08-27T15:30:52.102Z,32.81
2018-08-27T15:33:21.339Z,35.53
2018-08-27T15:35:50.425Z,34.67
2018-08-27T15:38:19.426Z,35.07
2018-08-27T15:40:48.353Z,36.24
2018-08-27T15:43:17.272Z,36.22
2018-08-27T15:45:51.742Z,36.71
2018-08-27T15:48:20.744Z,36.76
2018-08-27T15:50:49.823Z,37.04
2018-08-27T15:53:18.629Z,36.92
2018-08-27T15:55:47.560Z,37.04
2018-08-27T15:58:16.506Z,37.04
2018-08-27T16:00:45.435Z,37.85
2018-08-27T16:03:14.494Z,37.75
2018-08-27T16:05:43.540Z,38.07
2018-08-27T16:08:12.496Z,37.42
2018-08-27T16:10:41.531Z,37.18
2018-08-27T16:13:10.612Z,36.52
2018-08-27T16:15:39.615Z,36.66
2018-08-27T16:18:08.618Z,36.73
2018-08-27T16:20:37.734Z,36.91
2018-08-27T16:23:06.692Z,36.92
2018-08-27T16:25:35.686Z,36.62
2018-08-27T16:28:04.660Z,37.19
2018-08-27T16:30:33.720Z,36.47
2018-08-27T16:33:02.659Z,36.57
2018-08-27T16:35:31.576Z,36.68
2018-08-27T16:38:00.628Z,37.14
2018-08-27T16:40:29.620Z,37.36
2018-08-27T16:42:58.556Z,37.38
2018-08-27T16:45:27.542Z,37.83
2018-08-27T16:47:56.619Z,38.71
2018-08-27T16:50:25.581Z,37.21
2018-08-27T16:52:54.562Z,37.77
2018-08-27T16:55:23.452Z,38.38
2018-08-27T16:57:52.429Z,38.66
2018-08-27T17:00:21.352Z,39.00
2018-08-27T17:02:50.435Z,38.83
2018-08-27T17:05:19.369Z,38.50
2018-08-27T17:07:48.356Z,38.54
2018-08-27T17:10:17.361Z,38.05
2018-08-27T17:12:46.293Z,38.61
2018-08-27T17:15:15.335Z,37.86
2018-08-27T17:17:44.284Z,38.45
2018-08-27T17:20:13.214Z,38.88
2018-08-27T17:22:42.152Z,39.52
2018-08-27T17:25:11.088Z,39.50
2018-08-27T17:27:40.128Z,39.67
2018-08-27T17:30:09.075Z,38.95
2018-08-27T17:32:37.999Z,39.56
2018-08-27T17:35:07.388Z,39.26
2018-08-27T17:37:36.409Z,38.77
2018-08-27T17:40:05.738Z,39.38
2018-08-27T17:42:34.716Z,39.86
2018-08-27T17:45:03.749Z,39.54
2018-08-27T17:47:32.611Z,40.53
2018-08-27T17:50:01.681Z,40.40
2018-08-27T17:52:30.649Z,41.35
2018-08-27T17:54:59.560Z,41.56
2018-08-27T17:57:28.522Z,42.07
2018-08-27T17:59:57.493Z,41.96
2018-08-27T18:02:26.747Z,43.32
2018-08-27T18:04:55.809Z,43.45
2018-08-27T18:07:24.764Z,43.26
2018-08-27T18:09:53.876Z,44.07
2018-08-27T18:12:22.903Z,44.58
2018-08-27T18:14:51.792Z,45.20
2018-08-27T18:17:20.733Z,45.61
2018-08-27T18:19:49.676Z,46.03
2018-08-27T18:22:18.823Z,46.73
2018-08-27T18:24:47.765Z,46.35
2018-08-27T18:27:16.714Z,46.46
2018-08-27T18:29:45.649Z,47.75
2018-08-27T18:32:14.589Z,48.63
2018-08-27T18:34:43.540Z,49.38
2018-08-27T18:37:12.471Z,49.35
2018-08-27T18:39:41.411Z,48.69
2018-08-27T18:42:10.390Z,52.54
2018-08-27T18:44:51.625Z,49.74
2018-08-27T18:47:21.804Z,49.43
2018-08-27T18:49:50.737Z,49.74
2018-08-27T18:52:19.694Z,52.21
2018-08-27T18:54:48.600Z,51.50
2018-08-27T18:57:17.573Z,50.02
2018-08-27T18:59:46.484Z,52.25
2018-08-27T19:02:15.410Z,52.40
2018-08-27T19:04:44.353Z,51.87
2018-08-27T19:07:13.298Z,51.70
2018-08-27T19:09:42.216Z,52.19
2018-08-27T19:12:11.249Z,52.96
2018-08-27T19:14:40.168Z,53.18
2018-08-27T19:17:09.206Z,54.11
2018-08-27T19:19:38.356Z,53.40
2018-08-27T19:22:07.359Z,54.48
2018-08-27T19:24:36.554Z,53.56
2018-08-27T19:27:05.457Z,53.72
2018-08-27T19:29:34.365Z,55.77
2018-08-27T19:32:03.322Z,54.90
2018-08-27T19:34:32.253Z,54.95
2018-08-27T19:37:01.362Z,55.62
2018-08-27T19:39:30.317Z,55.59
2018-08-27T19:41:59.170Z,55.31
2018-08-27T19:44:28.136Z,57.17
2018-08-27T19:46:57.081Z,56.35
2018-08-27T19:49:26.080Z,56.50
2018-08-27T19:51:55.096Z,57.17
2018-08-27T19:54:24.016Z,57.21
2018-08-27T19:56:52.955Z,58.13
2018-08-27T19:59:21.916Z,57.49
2018-08-27T20:01:50.937Z,57.82
2018-08-27T20:04:19.898Z,58.78
2018-08-27T20:06:48.831Z,59.01
2018-08-27T20:09:17.784Z,60.02
2018-08-27T20:11:46.747Z,59.63
2018-08-27T20:14:15.695Z,59.45
2018-08-27T20:16:44.791Z,60.02
2018-08-27T20:19:13.979Z,60.68
2018-08-27T20:21:43.002Z,60.45
2018-08-27T20:24:11.968Z,60.02
2018-08-27T20:26:40.966Z,60.61
2018-08-27T20:29:09.918Z,60.88
2018-08-27T20:31:38.855Z,60.71
2018-08-27T20:34:07.861Z,62.33
2018-08-27T20:36:36.949Z,61.79
2018-08-27T20:39:07.321Z,62.21
2018-08-27T20:41:36.386Z,62.79
2018-08-27T20:44:05.772Z,63.11
2018-08-27T20:46:34.712Z,62.15
2018-08-27T20:49:03.654Z,62.42
2018-08-27T20:51:32.591Z,62.44
2018-08-27T20:54:01.621Z,62.91
2018-08-27T20:56:30.581Z,63.35
2018-08-27T20:58:59.565Z,64.70
2018-08-27T21:01:28.593Z,63.87
2018-08-27T21:03:57.740Z,64.96
2018-08-27T21:06:26.819Z,64.15
2018-08-27T21:08:55.731Z,64.46
2018-08-27T21:11:24.682Z,64.87
2018-08-27T21:13:54.444Z,65.93
2018-08-27T21:16:23.368Z,64.58
2018-08-27T21:18:52.326Z,65.05
2018-08-27T21:21:21.792Z,65.67
2018-08-27T21:23:50.774Z,65.59
2018-08-27T21:26:19.699Z,66.67
2018-08-27T21:28:48.741Z,66.50
2018-08-27T21:31:17.674Z,66.49
2018-08-27T21:33:46.600Z,66.80
2018-08-27T21:36:15.552Z,67.21
2018-08-27T21:38:44.497Z,67.04
2018-08-27T21:41:13.577Z,66.97
2018-08-27T21:43:42.549Z,66.33
2018-08-27T21:46:11.495Z,66.73
2018-08-27T21:48:40.481Z,66.55
2018-08-27T21:51:09.405Z,66.54
2018-08-27T21:53:38.340Z,66.00
2018-08-27T21:56:07.346Z,67.48
2018-08-27T21:58:36.259Z,67.01
2018-08-27T22:01:05.444Z,66.14
2018-08-27T22:03:39.802Z,67.09
2018-08-27T22:06:08.722Z,65.95
2018-08-27T22:08:38.031Z,66.47
2018-08-27T22:11:06.979Z,68.22
2018-08-27T22:13:36.020Z,66.50
2018-08-27T22:16:04.972Z,66.79
2018-08-27T22:18:33.996Z,66.85
2018-08-27T22:21:02.920Z,66.40
2018-08-27T22:23:31.850Z,66.57
2018-08-27T22:26:00.779Z,68.00
2018-08-27T22:28:29.844Z,67.45
2018-08-27T22:30:58.781Z,67.84
2018-08-27T22:33:27.754Z,67.47
2018-08-27T22:35:56.681Z,68.26
2018-08-27T22:38:25.620Z,67.71
2018-08-27T22:41:00.173Z,68.06
2018-08-27T22:43:29.104Z,68.31
2018-08-27T22:45:58.078Z,68.64
2018-08-27T22:48:27.004Z,69.60
2018-08-27T22:50:55.996Z,69.33
2018-08-27T22:53:25.032Z,69.65
2018-08-27T22:55:53.969Z,70.35
2018-08-27T22:58:22.920Z,71.13
2018-08-27T23:00:51.849Z,71.18
2018-08-27T23:03:26.233Z,72.11
2018-08-27T23:05:55.165Z,71.80
2018-08-27T23:08:24.095Z,72.58
2018-08-27T23:10:53.029Z,71.96
2018-08-27T23:13:21.952Z,72.28
2018-08-27T23:15:50.872Z,73.24
2018-08-27T23:18:19.885Z,73.45
2018-08-27T23:20:48.807Z,73.37
2018-08-27T23:23:17.758Z,73.54
2018-08-27T23:25:46.700Z,73.07
2018-08-27T23:28:15.655Z,72.67
2018-08-27T23:30:44.603Z,72.94
2018-08-27T23:33:13.547Z,72.67
2018-08-27T23:35:42.464Z,72.37
2018-08-27T23:38:11.375Z,72.51
2018-08-27T23:40:40.309Z,72.71
2018-08-27T23:43:09.258Z,72.26
2018-08-27T23:45:38.176Z,71.62
2018-08-27T23:48:35.236Z,72.70
2018-08-27T23:51:04.401Z,72.57
2018-08-27T23:53:33.464Z,73.25
2018-08-27T23:56:02.449Z,73.57
2018-08-27T23:58:31.371Z,73.67
